sensor_id;sensor_type;location;lat;lon;timestamp;P1;durP1;ratioP1;P2;durP2;ratioP2
78406;SDS011;67692;51.074;-1.790;2023-02-26T00:00:04;11.15;;;1.90;;
78406;SDS011;67692;51.074;-1.790;2023-02-26T00:02:36;9.10;;;2.08;;
78406;SDS011;67692;51.074;-1.790;2023-02-26T00:05:04;16.27;;;3.13;;
78406;SDS011;67692;51.074;-1.790;2023-02-26T00:07:31;8.90;;;1.88;;
78406;SDS011;67692;51.074;-1.790;2023-02-26T00:09:58;12.30;;;2.17;;
78406;SDS011;67692;51.074;-1.790;2023-02-26T00:12:26;9.73;;;1.90;;
78406;SDS011;67692;51.074;-1.790;2023-02-26T00:14:53;6.88;;;1.95;;
78406;SDS011;67692;51.074;-1.790;2023-02-26T00:20:12;7.10;;;1.27;;
78406;SDS011;67692;51.074;-1.790;2023-02-26T00:22:41;7.15;;;1.50;;
78406;SDS011;67692;51.074;-1.790;2023-02-26T00:25:08;5.82;;;1.70;;
78406;SDS011;67692;51.074;-1.790;2023-02-26T00:27:36;11.88;;;2.13;;
78406;SDS011;67692;51.074;-1.790;2023-02-26T00:30:03;8.00;;;1.48;;
78406;SDS011;67692;51.074;-1.790;2023-02-26T00:32:32;4.88;;;1.65;;
78406;SDS011;67692;51.074;-1.790;2023-02-26T00:35:00;8.55;;;1.88;;
78406;SDS011;67692;51.074;-1.790;2023-02-26T00:37:33;10.82;;;2.17;;
78406;SDS011;67692;51.074;-1.790;2023-02-26T00:40:14;6.18;;;2.38;;
78406;SDS011;67692;51.074;-1.790;2023-02-26T00:42:45;12.27;;;1.67;;
78406;SDS011;67692;51.074;-1.790;2023-02-26T00:45:12;9.20;;;1.83;;
78406;SDS011;67692;51.074;-1.790;2023-02-26T00:47:42;9.68;;;2.05;;
78406;SDS011;67692;51.074;-1.790;2023-02-26T00:50:16;6.78;;;1.52;;
78406;SDS011;67692;51.074;-1.790;2023-02-26T00:52:48;15.20;;;2.35;;
78406;SDS011;67692;51.074;-1.790;2023-02-26T00:55:27;15.52;;;2.10;;
78406;SDS011;67692;51.074;-1.790;2023-02-26T00:57:54;5.85;;;1.73;;
78406;SDS011;67692;51.074;-1.790;2023-02-26T01:00:21;7.40;;;1.33;;
78406;SDS011;67692;51.074;-1.790;2023-02-26T01:02:48;14.73;;;1.67;;
78406;SDS011;67692;51.074;-1.790;2023-02-26T01:05:16;9.95;;;1.55;;
78406;SDS011;67692;51.074;-1.790;2023-02-26T01:07:43;4.95;;;1.48;;
78406;SDS011;67692;51.074;-1.790;2023-02-26T01:10:18;5.38;;;1.17;;
78406;SDS011;67692;51.074;-1.790;2023-02-26T01:12:46;14.75;;;1.70;;
78406;SDS011;67692;51.074;-1.790;2023-02-26T01:15:13;5.32;;;1.77;;
78406;SDS011;67692;51.074;-1.790;2023-02-26T01:17:43;12.30;;;1.65;;
78406;SDS011;67692;51.074;-1.790;2023-02-26T01:20:14;11.23;;;1.83;;
78406;SDS011;67692;51.074;-1.790;2023-02-26T01:22:45;9.30;;;1.63;;
78406;SDS011;67692;51.074;-1.790;2023-02-26T01:25:19;10.68;;;2.13;;
78406;SDS011;67692;51.074;-1.790;2023-02-26T01:27:49;5.68;;;1.90;;
78406;SDS011;67692;51.074;-1.790;2023-02-26T01:30:16;13.68;;;1.75;;
78406;SDS011;67692;51.074;-1.790;2023-02-26T01:32:45;7.43;;;1.75;;
78406;SDS011;67692;51.074;-1.790;2023-02-26T01:35:20;5.75;;;1.65;;
78406;SDS011;67692;51.074;-1.790;2023-02-26T01:37:59;8.85;;;1.30;;
78406;SDS011;67692;51.074;-1.790;2023-02-26T01:40:37;4.43;;;1.17;;
78406;SDS011;67692;51.074;-1.790;2023-02-26T01:43:23;11.30;;;1.40;;
78406;SDS011;67692;51.074;-1.790;2023-02-26T01:46:00;12.02;;;1.60;;
78406;SDS011;67692;51.074;-1.790;2023-02-26T01:48:35;6.90;;;1.65;;
78406;SDS011;67692;51.074;-1.790;2023-02-26T01:51:03;9.95;;;1.70;;
78406;SDS011;67692;51.074;-1.790;2023-02-26T01:53:31;8.57;;;1.70;;
78406;SDS011;67692;51.074;-1.790;2023-02-26T01:55:59;9.77;;;1.98;;
78406;SDS011;67692;51.074;-1.790;2023-02-26T01:58:31;11.38;;;1.83;;
78406;SDS011;67692;51.074;-1.790;2023-02-26T02:01:00;4.78;;;1.40;;
78406;SDS011;67692;51.074;-1.790;2023-02-26T02:03:28;5.75;;;1.35;;
78406;SDS011;67692;51.074;-1.790;2023-02-26T02:05:59;7.95;;;1.67;;
78406;SDS011;67692;51.074;-1.790;2023-02-26T02:08:33;7.63;;;1.75;;
78406;SDS011;67692;51.074;-1.790;2023-02-26T02:11:01;9.02;;;1.67;;
78406;SDS011;67692;51.074;-1.790;2023-02-26T02:13:30;8.10;;;1.70;;
78406;SDS011;67692;51.074;-1.790;2023-02-26T02:16:07;7.40;;;1.20;;
78406;SDS011;67692;51.074;-1.790;2023-02-26T02:18:46;7.28;;;1.20;;
78406;SDS011;67692;51.074;-1.790;2023-02-26T02:21:28;10.43;;;1.38;;
78406;SDS011;67692;51.074;-1.790;2023-02-26T02:24:11;2.75;;;0.98;;
78406;SDS011;67692;51.074;-1.790;2023-02-26T02:29:31;5.90;;;1.40;;
78406;SDS011;67692;51.074;-1.790;2023-02-26T02:32:12;5.63;;;1.50;;
78406;SDS011;67692;51.074;-1.790;2023-02-26T02:34:46;3.33;;;1.33;;
78406;SDS011;67692;51.074;-1.790;2023-02-26T02:37:18;4.65;;;1.23;;
78406;SDS011;67692;51.074;-1.790;2023-02-26T02:39:49;5.10;;;1.23;;
78406;SDS011;67692;51.074;-1.790;2023-02-26T02:42:21;6.28;;;1.90;;
78406;SDS011;67692;51.074;-1.790;2023-02-26T02:44:52;6.88;;;1.13;;
78406;SDS011;67692;51.074;-1.790;2023-02-26T02:47:24;7.65;;;1.60;;
78406;SDS011;67692;51.074;-1.790;2023-02-26T02:49:54;7.10;;;1.45;;
78406;SDS011;67692;51.074;-1.790;2023-02-26T02:52:25;14.60;;;1.90;;
78406;SDS011;67692;51.074;-1.790;2023-02-26T02:54:59;7.82;;;1.40;;
78406;SDS011;67692;51.074;-1.790;2023-02-26T02:57:29;5.55;;;1.30;;
78406;SDS011;67692;51.074;-1.790;2023-02-26T03:00:02;6.65;;;1.52;;
78406;SDS011;67692;51.074;-1.790;2023-02-26T03:02:33;5.55;;;1.60;;
78406;SDS011;67692;51.074;-1.790;2023-02-26T03:05:05;10.55;;;1.10;;
78406;SDS011;67692;51.074;-1.790;2023-02-26T03:07:32;9.02;;;1.52;;
78406;SDS011;67692;51.074;-1.790;2023-02-26T03:10:02;5.40;;;1.20;;
78406;SDS011;67692;51.074;-1.790;2023-02-26T03:12:30;3.70;;;1.08;;
78406;SDS011;67692;51.074;-1.790;2023-02-26T03:14:57;9.30;;;2.03;;
78406;SDS011;67692;51.074;-1.790;2023-02-26T03:17:26;6.20;;;1.50;;
78406;SDS011;67692;51.074;-1.790;2023-02-26T03:20:02;5.13;;;1.40;;
78406;SDS011;67692;51.074;-1.790;2023-02-26T03:22:36;9.25;;;1.73;;
78406;SDS011;67692;51.074;-1.790;2023-02-26T03:25:11;6.35;;;1.50;;
78406;SDS011;67692;51.074;-1.790;2023-02-26T03:27:45;9.10;;;1.20;;
78406;SDS011;67692;51.074;-1.790;2023-02-26T03:30:18;6.13;;;1.13;;
78406;SDS011;67692;51.074;-1.790;2023-02-26T03:32:50;6.95;;;1.25;;
78406;SDS011;67692;51.074;-1.790;2023-02-26T03:35:25;3.05;;;1.02;;
78406;SDS011;67692;51.074;-1.790;2023-02-26T03:37:59;6.45;;;1.17;;
78406;SDS011;67692;51.074;-1.790;2023-02-26T03:40:30;7.45;;;1.88;;
78406;SDS011;67692;51.074;-1.790;2023-02-26T03:43:02;5.20;;;1.35;;
78406;SDS011;67692;51.074;-1.790;2023-02-26T03:45:34;4.07;;;1.60;;
78406;SDS011;67692;51.074;-1.790;2023-02-26T03:48:05;5.57;;;1.35;;
78406;SDS011;67692;51.074;-1.790;2023-02-26T03:50:37;5.53;;;1.10;;
78406;SDS011;67692;51.074;-1.790;2023-02-26T03:53:08;7.00;;;1.05;;
78406;SDS011;67692;51.074;-1.790;2023-02-26T03:55:39;7.05;;;1.27;;
78406;SDS011;67692;51.074;-1.790;2023-02-26T03:58:10;7.43;;;1.27;;
78406;SDS011;67692;51.074;-1.790;2023-02-26T04:00:37;3.38;;;1.08;;
78406;SDS011;67692;51.074;-1.790;2023-02-26T04:03:08;6.30;;;1.52;;
78406;SDS011;67692;51.074;-1.790;2023-02-26T04:05:42;4.78;;;1.40;;
78406;SDS011;67692;51.074;-1.790;2023-02-26T04:08:13;3.47;;;1.00;;
78406;SDS011;67692;51.074;-1.790;2023-02-26T04:10:41;7.78;;;1.30;;
78406;SDS011;67692;51.074;-1.790;2023-02-26T04:13:10;4.53;;;1.08;;
78406;SDS011;67692;51.074;-1.790;2023-02-26T04:15:37;6.63;;;1.95;;
78406;SDS011;67692;51.074;-1.790;2023-02-26T04:18:04;8.05;;;1.05;;
78406;SDS011;67692;51.074;-1.790;2023-02-26T04:20:31;3.67;;;1.10;;
78406;SDS011;67692;51.074;-1.790;2023-02-26T04:22:59;8.05;;;1.58;;
78406;SDS011;67692;51.074;-1.790;2023-02-26T04:25:26;7.55;;;1.73;;
78406;SDS011;67692;51.074;-1.790;2023-02-26T04:27:52;6.32;;;1.83;;
78406;SDS011;67692;51.074;-1.790;2023-02-26T04:30:19;5.82;;;1.60;;
78406;SDS011;67692;51.074;-1.790;2023-02-26T04:32:46;9.00;;;1.80;;
78406;SDS011;67692;51.074;-1.790;2023-02-26T04:35:13;6.40;;;1.10;;
78406;SDS011;67692;51.074;-1.790;2023-02-26T04:37:39;7.40;;;1.50;;
78406;SDS011;67692;51.074;-1.790;2023-02-26T04:40:08;6.40;;;1.95;;
78406;SDS011;67692;51.074;-1.790;2023-02-26T04:42:35;8.38;;;1.83;;
78406;SDS011;67692;51.074;-1.790;2023-02-26T04:45:02;8.25;;;1.60;;
78406;SDS011;67692;51.074;-1.790;2023-02-26T04:47:29;7.03;;;1.45;;
78406;SDS011;67692;51.074;-1.790;2023-02-26T04:49:55;5.97;;;1.40;;
78406;SDS011;67692;51.074;-1.790;2023-02-26T04:52:22;13.00;;;2.28;;
78406;SDS011;67692;51.074;-1.790;2023-02-26T04:54:49;7.93;;;1.80;;
78406;SDS011;67692;51.074;-1.790;2023-02-26T04:57:17;9.85;;;2.17;;
78406;SDS011;67692;51.074;-1.790;2023-02-26T04:59:44;10.98;;;1.67;;
78406;SDS011;67692;51.074;-1.790;2023-02-26T05:02:10;5.97;;;1.50;;
78406;SDS011;67692;51.074;-1.790;2023-02-26T05:04:37;6.75;;;1.45;;
78406;SDS011;67692;51.074;-1.790;2023-02-26T05:07:04;5.47;;;1.83;;
78406;SDS011;67692;51.074;-1.790;2023-02-26T05:09:30;5.05;;;2.00;;
78406;SDS011;67692;51.074;-1.790;2023-02-26T05:11:57;10.80;;;1.40;;
78406;SDS011;67692;51.074;-1.790;2023-02-26T05:14:25;7.68;;;1.80;;
78406;SDS011;67692;51.074;-1.790;2023-02-26T05:16:52;5.10;;;1.63;;
78406;SDS011;67692;51.074;-1.790;2023-02-26T05:19:19;11.00;;;1.65;;
78406;SDS011;67692;51.074;-1.790;2023-02-26T05:21:45;6.22;;;1.58;;
78406;SDS011;67692;51.074;-1.790;2023-02-26T05:24:13;8.13;;;1.67;;
78406;SDS011;67692;51.074;-1.790;2023-02-26T05:26:39;6.85;;;1.48;;
78406;SDS011;67692;51.074;-1.790;2023-02-26T05:29:06;9.90;;;1.58;;
78406;SDS011;67692;51.074;-1.790;2023-02-26T05:31:34;5.85;;;2.10;;
78406;SDS011;67692;51.074;-1.790;2023-02-26T05:34:00;5.80;;;2.15;;
78406;SDS011;67692;51.074;-1.790;2023-02-26T05:36:27;8.30;;;1.85;;
78406;SDS011;67692;51.074;-1.790;2023-02-26T05:38:54;5.07;;;1.75;;
78406;SDS011;67692;51.074;-1.790;2023-02-26T05:41:20;10.00;;;1.77;;
78406;SDS011;67692;51.074;-1.790;2023-02-26T05:43:47;5.50;;;1.60;;
78406;SDS011;67692;51.074;-1.790;2023-02-26T05:46:13;5.13;;;1.60;;
78406;SDS011;67692;51.074;-1.790;2023-02-26T05:48:41;10.20;;;1.35;;
78406;SDS011;67692;51.074;-1.790;2023-02-26T05:51:08;7.68;;;1.52;;
78406;SDS011;67692;51.074;-1.790;2023-02-26T05:53:35;4.15;;;1.58;;
78406;SDS011;67692;51.074;-1.790;2023-02-26T05:56:01;11.65;;;2.08;;
78406;SDS011;67692;51.074;-1.790;2023-02-26T05:58:29;5.47;;;1.77;;
78406;SDS011;67692;51.074;-1.790;2023-02-26T06:00:58;11.50;;;2.08;;
78406;SDS011;67692;51.074;-1.790;2023-02-26T06:03:25;12.30;;;1.80;;
78406;SDS011;67692;51.074;-1.790;2023-02-26T06:05:53;10.38;;;2.05;;
78406;SDS011;67692;51.074;-1.790;2023-02-26T06:08:20;4.32;;;1.55;;
78406;SDS011;67692;51.074;-1.790;2023-02-26T06:10:46;12.15;;;2.40;;
78406;SDS011;67692;51.074;-1.790;2023-02-26T06:13:14;7.70;;;1.40;;
78406;SDS011;67692;51.074;-1.790;2023-02-26T06:15:41;6.03;;;1.48;;
78406;SDS011;67692;51.074;-1.790;2023-02-26T06:18:08;8.50;;;1.77;;
78406;SDS011;67692;51.074;-1.790;2023-02-26T06:20:34;6.25;;;1.70;;
78406;SDS011;67692;51.074;-1.790;2023-02-26T06:23:03;5.70;;;1.70;;
78406;SDS011;67692;51.074;-1.790;2023-02-26T06:25:29;7.30;;;1.60;;
78406;SDS011;67692;51.074;-1.790;2023-02-26T06:27:56;9.52;;;2.47;;
78406;SDS011;67692;51.074;-1.790;2023-02-26T06:30:22;8.10;;;1.42;;
78406;SDS011;67692;51.074;-1.790;2023-02-26T06:32:49;9.45;;;2.38;;
78406;SDS011;67692;51.074;-1.790;2023-02-26T06:35:15;3.08;;;1.52;;
78406;SDS011;67692;51.074;-1.790;2023-02-26T06:37:42;6.57;;;1.58;;
78406;SDS011;67692;51.074;-1.790;2023-02-26T06:40:11;3.97;;;1.60;;
78406;SDS011;67692;51.074;-1.790;2023-02-26T06:42:38;9.48;;;2.05;;
78406;SDS011;67692;51.074;-1.790;2023-02-26T06:45:05;7.30;;;2.03;;
78406;SDS011;67692;51.074;-1.790;2023-02-26T06:47:33;11.93;;;2.28;;
78406;SDS011;67692;51.074;-1.790;2023-02-26T06:49:59;8.80;;;2.15;;
78406;SDS011;67692;51.074;-1.790;2023-02-26T06:52:28;11.27;;;2.03;;
78406;SDS011;67692;51.074;-1.790;2023-02-26T06:54:55;12.88;;;2.13;;
78406;SDS011;67692;51.074;-1.790;2023-02-26T06:57:23;8.48;;;2.10;;
78406;SDS011;67692;51.074;-1.790;2023-02-26T06:59:49;4.40;;;1.65;;
78406;SDS011;67692;51.074;-1.790;2023-02-26T07:02:16;4.40;;;1.60;;
78406;SDS011;67692;51.074;-1.790;2023-02-26T07:04:44;6.85;;;1.75;;
78406;SDS011;67692;51.074;-1.790;2023-02-26T07:07:11;8.02;;;2.20;;
78406;SDS011;67692;51.074;-1.790;2023-02-26T07:09:38;7.05;;;2.10;;
78406;SDS011;67692;51.074;-1.790;2023-02-26T07:12:04;4.95;;;1.77;;
78406;SDS011;67692;51.074;-1.790;2023-02-26T07:14:33;4.60;;;1.60;;
78406;SDS011;67692;51.074;-1.790;2023-02-26T07:17:02;9.25;;;2.00;;
78406;SDS011;67692;51.074;-1.790;2023-02-26T07:19:29;7.97;;;2.10;;
78406;SDS011;67692;51.074;-1.790;2023-02-26T07:21:55;5.82;;;2.00;;
78406;SDS011;67692;51.074;-1.790;2023-02-26T07:24:22;5.88;;;2.13;;
78406;SDS011;67692;51.074;-1.790;2023-02-26T07:26:49;5.90;;;1.83;;
78406;SDS011;67692;51.074;-1.790;2023-02-26T07:29:16;6.20;;;1.88;;
78406;SDS011;67692;51.074;-1.790;2023-02-26T07:31:44;5.32;;;1.80;;
78406;SDS011;67692;51.074;-1.790;2023-02-26T07:34:11;16.20;;;2.97;;
78406;SDS011;67692;51.074;-1.790;2023-02-26T07:36:39;6.07;;;1.80;;
78406;SDS011;67692;51.074;-1.790;2023-02-26T07:39:05;4.88;;;1.85;;
78406;SDS011;67692;51.074;-1.790;2023-02-26T07:41:32;8.40;;;2.17;;
78406;SDS011;67692;51.074;-1.790;2023-02-26T07:43:58;10.80;;;2.63;;
78406;SDS011;67692;51.074;-1.790;2023-02-26T07:46:25;10.40;;;2.40;;
78406;SDS011;67692;51.074;-1.790;2023-02-26T07:48:53;9.20;;;2.42;;
78406;SDS011;67692;51.074;-1.790;2023-02-26T07:51:20;7.72;;;2.22;;
78406;SDS011;67692;51.074;-1.790;2023-02-26T07:53:46;9.65;;;2.08;;
78406;SDS011;67692;51.074;-1.790;2023-02-26T07:56:13;7.63;;;2.38;;
78406;SDS011;67692;51.074;-1.790;2023-02-26T07:58:40;10.80;;;2.10;;
78406;SDS011;67692;51.074;-1.790;2023-02-26T08:01:06;8.38;;;1.70;;
78406;SDS011;67692;51.074;-1.790;2023-02-26T08:03:33;8.43;;;2.45;;
78406;SDS011;67692;51.074;-1.790;2023-02-26T08:06:01;6.22;;;1.85;;
78406;SDS011;67692;51.074;-1.790;2023-02-26T08:08:29;5.93;;;1.65;;
78406;SDS011;67692;51.074;-1.790;2023-02-26T08:10:57;4.93;;;1.45;;
78406;SDS011;67692;51.074;-1.790;2023-02-26T08:13:25;5.85;;;1.30;;
78406;SDS011;67692;51.074;-1.790;2023-02-26T08:15:52;7.95;;;1.55;;
78406;SDS011;67692;51.074;-1.790;2023-02-26T08:18:18;8.18;;;1.80;;
78406;SDS011;67692;51.074;-1.790;2023-02-26T08:20:45;13.40;;;2.50;;
78406;SDS011;67692;51.074;-1.790;2023-02-26T08:23:13;9.70;;;1.92;;
78406;SDS011;67692;51.074;-1.790;2023-02-26T08:25:40;6.57;;;1.85;;
78406;SDS011;67692;51.074;-1.790;2023-02-26T08:28:06;14.00;;;1.85;;
78406;SDS011;67692;51.074;-1.790;2023-02-26T08:30:33;8.13;;;2.35;;
78406;SDS011;67692;51.074;-1.790;2023-02-26T08:33:00;6.70;;;1.60;;
78406;SDS011;67692;51.074;-1.790;2023-02-26T08:35:26;6.60;;;1.50;;
78406;SDS011;67692;51.074;-1.790;2023-02-26T08:37:53;6.72;;;1.38;;
78406;SDS011;67692;51.074;-1.790;2023-02-26T08:40:21;7.78;;;1.48;;
78406;SDS011;67692;51.074;-1.790;2023-02-26T08:42:47;4.47;;;1.50;;
78406;SDS011;67692;51.074;-1.790;2023-02-26T08:45:14;13.15;;;1.95;;
78406;SDS011;67692;51.074;-1.790;2023-02-26T08:47:41;4.00;;;1.40;;
78406;SDS011;67692;51.074;-1.790;2023-02-26T08:50:10;10.30;;;2.53;;
78406;SDS011;67692;51.074;-1.790;2023-02-26T08:52:37;8.88;;;1.30;;
78406;SDS011;67692;51.074;-1.790;2023-02-26T08:55:04;6.00;;;1.80;;
78406;SDS011;67692;51.074;-1.790;2023-02-26T08:57:32;8.00;;;1.75;;
78406;SDS011;67692;51.074;-1.790;2023-02-26T08:59:59;9.05;;;1.73;;
78406;SDS011;67692;51.074;-1.790;2023-02-26T09:02:26;5.57;;;1.30;;
78406;SDS011;67692;51.074;-1.790;2023-02-26T09:04:52;6.05;;;1.60;;
78406;SDS011;67692;51.074;-1.790;2023-02-26T09:07:19;6.45;;;1.48;;
78406;SDS011;67692;51.074;-1.790;2023-02-26T09:09:45;5.85;;;1.25;;
78406;SDS011;67692;51.074;-1.790;2023-02-26T09:12:12;8.60;;;1.48;;
78406;SDS011;67692;51.074;-1.790;2023-02-26T09:14:40;5.78;;;1.38;;
78406;SDS011;67692;51.074;-1.790;2023-02-26T09:17:07;7.55;;;1.45;;
78406;SDS011;67692;51.074;-1.790;2023-02-26T09:19:33;4.43;;;1.10;;
78406;SDS011;67692;51.074;-1.790;2023-02-26T09:22:00;9.77;;;1.30;;
78406;SDS011;67692;51.074;-1.790;2023-02-26T09:24:27;21.10;;;1.77;;
78406;SDS011;67692;51.074;-1.790;2023-02-26T09:26:53;5.25;;;1.40;;
78406;SDS011;67692;51.074;-1.790;2023-02-26T09:29:20;5.25;;;1.23;;
78406;SDS011;67692;51.074;-1.790;2023-02-26T09:31:48;6.53;;;1.20;;
78406;SDS011;67692;51.074;-1.790;2023-02-26T09:34:15;6.82;;;1.75;;
78406;SDS011;67692;51.074;-1.790;2023-02-26T09:36:41;6.45;;;1.17;;
78406;SDS011;67692;51.074;-1.790;2023-02-26T09:39:10;6.15;;;1.20;;
78406;SDS011;67692;51.074;-1.790;2023-02-26T09:41:37;8.13;;;1.45;;
78406;SDS011;67692;51.074;-1.790;2023-02-26T09:44:09;5.88;;;1.25;;
78406;SDS011;67692;51.074;-1.790;2023-02-26T09:46:43;7.13;;;1.48;;
78406;SDS011;67692;51.074;-1.790;2023-02-26T09:49:22;2.42;;;1.33;;
78406;SDS011;67692;51.074;-1.790;2023-02-26T09:51:57;5.07;;;1.08;;
78406;SDS011;67692;51.074;-1.790;2023-02-26T09:54:28;5.55;;;1.33;;
78406;SDS011;67692;51.074;-1.790;2023-02-26T09:56:59;5.47;;;1.05;;
78406;SDS011;67692;51.074;-1.790;2023-02-26T09:59:26;6.53;;;0.98;;
78406;SDS011;67692;51.074;-1.790;2023-02-26T10:01:59;6.38;;;0.68;;
78406;SDS011;67692;51.074;-1.790;2023-02-26T10:04:39;10.13;;;1.52;;
78406;SDS011;67692;51.074;-1.790;2023-02-26T10:07:16;7.57;;;1.15;;
78406;SDS011;67692;51.074;-1.790;2023-02-26T10:09:53;5.88;;;1.13;;
78406;SDS011;67692;51.074;-1.790;2023-02-26T10:12:28;3.65;;;1.15;;
78406;SDS011;67692;51.074;-1.790;2023-02-26T10:14:59;2.85;;;0.88;;
78406;SDS011;67692;51.074;-1.790;2023-02-26T10:20:00;4.82;;;0.85;;
78406;SDS011;67692;51.074;-1.790;2023-02-26T10:22:30;3.85;;;0.98;;
78406;SDS011;67692;51.074;-1.790;2023-02-26T10:25:02;6.43;;;1.27;;
78406;SDS011;67692;51.074;-1.790;2023-02-26T10:27:41;1.50;;;0.38;;
78406;SDS011;67692;51.074;-1.790;2023-02-26T10:30:15;4.60;;;0.73;;
78406;SDS011;67692;51.074;-1.790;2023-02-26T10:32:53;5.25;;;1.17;;
78406;SDS011;67692;51.074;-1.790;2023-02-26T10:35:26;9.63;;;1.45;;
78406;SDS011;67692;51.074;-1.790;2023-02-26T10:37:57;4.38;;;0.82;;
78406;SDS011;67692;51.074;-1.790;2023-02-26T10:40:28;3.53;;;0.88;;
78406;SDS011;67692;51.074;-1.790;2023-02-26T10:43:09;3.70;;;0.98;;
78406;SDS011;67692;51.074;-1.790;2023-02-26T10:45:43;10.43;;;1.30;;
78406;SDS011;67692;51.074;-1.790;2023-02-26T10:48:25;4.85;;;1.20;;
78406;SDS011;67692;51.074;-1.790;2023-02-26T10:51:00;6.28;;;0.90;;
78406;SDS011;67692;51.074;-1.790;2023-02-26T10:53:36;4.68;;;0.95;;
78406;SDS011;67692;51.074;-1.790;2023-02-26T10:56:06;11.80;;;1.48;;
78406;SDS011;67692;51.074;-1.790;2023-02-26T10:58:36;5.38;;;0.90;;
78406;SDS011;67692;51.074;-1.790;2023-02-26T11:01:03;4.40;;;1.30;;
78406;SDS011;67692;51.074;-1.790;2023-02-26T11:03:39;10.43;;;1.38;;
78406;SDS011;67692;51.074;-1.790;2023-02-26T11:06:10;5.32;;;0.88;;
78406;SDS011;67692;51.074;-1.790;2023-02-26T11:08:44;5.75;;;1.02;;
78406;SDS011;67692;51.074;-1.790;2023-02-26T11:14:06;3.78;;;1.08;;
78406;SDS011;67692;51.074;-1.790;2023-02-26T11:16:34;3.28;;;0.90;;
78406;SDS011;67692;51.074;-1.790;2023-02-26T11:19:06;2.92;;;0.82;;
78406;SDS011;67692;51.074;-1.790;2023-02-26T11:21:37;7.07;;;0.93;;
78406;SDS011;67692;51.074;-1.790;2023-02-26T11:24:06;5.32;;;1.20;;
78406;SDS011;67692;51.074;-1.790;2023-02-26T11:26:37;6.93;;;0.82;;
78406;SDS011;67692;51.074;-1.790;2023-02-26T11:29:11;9.45;;;1.20;;
78406;SDS011;67692;51.074;-1.790;2023-02-26T11:31:40;9.50;;;0.70;;
78406;SDS011;67692;51.074;-1.790;2023-02-26T11:34:07;1.65;;;0.65;;
78406;SDS011;67692;51.074;-1.790;2023-02-26T11:36:38;5.10;;;1.02;;
78406;SDS011;67692;51.074;-1.790;2023-02-26T11:39:09;5.30;;;0.85;;
78406;SDS011;67692;51.074;-1.790;2023-02-26T11:41:41;4.72;;;0.52;;
78406;SDS011;67692;51.074;-1.790;2023-02-26T11:44:13;4.70;;;0.95;;
78406;SDS011;67692;51.074;-1.790;2023-02-26T11:46:42;6.70;;;0.80;;
78406;SDS011;67692;51.074;-1.790;2023-02-26T11:49:13;5.45;;;0.90;;
78406;SDS011;67692;51.074;-1.790;2023-02-26T11:51:44;6.55;;;1.00;;
78406;SDS011;67692;51.074;-1.790;2023-02-26T11:54:21;5.90;;;0.90;;
78406;SDS011;67692;51.074;-1.790;2023-02-26T11:56:49;2.13;;;0.70;;
78406;SDS011;67692;51.074;-1.790;2023-02-26T11:59:17;3.47;;;0.80;;
78406;SDS011;67692;51.074;-1.790;2023-02-26T12:01:45;4.65;;;0.80;;
78406;SDS011;67692;51.074;-1.790;2023-02-26T12:04:16;4.80;;;0.90;;
78406;SDS011;67692;51.074;-1.790;2023-02-26T12:06:47;1.75;;;0.80;;
78406;SDS011;67692;51.074;-1.790;2023-02-26T12:09:17;1.38;;;0.60;;
78406;SDS011;67692;51.074;-1.790;2023-02-26T12:11:54;5.50;;;0.82;;
78406;SDS011;67692;51.074;-1.790;2023-02-26T12:14:40;1.55;;;0.68;;
78406;SDS011;67692;51.074;-1.790;2023-02-26T12:17:23;4.40;;;0.50;;
78406;SDS011;67692;51.074;-1.790;2023-02-26T12:20:02;4.65;;;0.80;;
78406;SDS011;67692;51.074;-1.790;2023-02-26T12:22:47;3.55;;;0.75;;
78406;SDS011;67692;51.074;-1.790;2023-02-26T12:28:36;5.05;;;1.17;;
78406;SDS011;67692;51.074;-1.790;2023-02-26T12:34:14;3.75;;;0.70;;
78406;SDS011;67692;51.074;-1.790;2023-02-26T12:36:59;4.00;;;0.70;;
78406;SDS011;67692;51.074;-1.790;2023-02-26T12:39:45;2.22;;;0.80;;
78406;SDS011;67692;51.074;-1.790;2023-02-26T12:42:25;1.98;;;0.65;;
78406;SDS011;67692;51.074;-1.790;2023-02-26T12:45:13;1.85;;;0.63;;
78406;SDS011;67692;51.074;-1.790;2023-02-26T12:47:53;4.88;;;0.68;;
78406;SDS011;67692;51.074;-1.790;2023-02-26T12:50:35;1.73;;;0.50;;
78406;SDS011;67692;51.074;-1.790;2023-02-26T12:53:20;2.78;;;1.00;;
78406;SDS011;67692;51.074;-1.790;2023-02-26T12:56:03;6.88;;;0.80;;
78406;SDS011;67692;51.074;-1.790;2023-02-26T12:58:47;2.13;;;0.70;;
78406;SDS011;67692;51.074;-1.790;2023-02-26T13:01:42;3.08;;;0.57;;
78406;SDS011;67692;51.074;-1.790;2023-02-26T13:10:17;3.75;;;0.77;;
78406;SDS011;67692;51.074;-1.790;2023-02-26T13:12:54;0.88;;;0.60;;
78406;SDS011;67692;51.074;-1.790;2023-02-26T13:15:33;1.98;;;0.55;;
78406;SDS011;67692;51.074;-1.790;2023-02-26T13:18:10;2.20;;;0.90;;
78406;SDS011;67692;51.074;-1.790;2023-02-26T13:20:45;4.80;;;0.80;;
78406;SDS011;67692;51.074;-1.790;2023-02-26T13:23:20;3.00;;;0.40;;
78406;SDS011;67692;51.074;-1.790;2023-02-26T13:25:50;2.58;;;0.70;;
78406;SDS011;67692;51.074;-1.790;2023-02-26T13:28:34;1.50;;;0.47;;
78406;SDS011;67692;51.074;-1.790;2023-02-26T13:31:06;1.75;;;0.60;;
78406;SDS011;67692;51.074;-1.790;2023-02-26T13:33:36;2.47;;;0.80;;
78406;SDS011;67692;51.074;-1.790;2023-02-26T13:36:05;3.13;;;0.80;;
78406;SDS011;67692;51.074;-1.790;2023-02-26T13:38:35;1.77;;;0.65;;
78406;SDS011;67692;51.074;-1.790;2023-02-26T13:41:09;4.47;;;0.80;;
78406;SDS011;67692;51.074;-1.790;2023-02-26T13:43:49;3.22;;;0.60;;
78406;SDS011;67692;51.074;-1.790;2023-02-26T13:46:32;1.50;;;0.68;;
78406;SDS011;67692;51.074;-1.790;2023-02-26T13:49:14;1.80;;;0.70;;
78406;SDS011;67692;51.074;-1.790;2023-02-26T13:51:45;2.72;;;0.70;;
78406;SDS011;67692;51.074;-1.790;2023-02-26T13:54:28;3.15;;;0.50;;
78406;SDS011;67692;51.074;-1.790;2023-02-26T13:57:08;1.23;;;0.45;;
78406;SDS011;67692;51.074;-1.790;2023-02-26T13:59:51;3.40;;;1.08;;
78406;SDS011;67692;51.074;-1.790;2023-02-26T14:05:27;3.90;;;1.08;;
78406;SDS011;67692;51.074;-1.790;2023-02-26T14:08:15;3.38;;;0.60;;
78406;SDS011;67692;51.074;-1.790;2023-02-26T14:10:53;3.03;;;0.70;;
78406;SDS011;67692;51.074;-1.790;2023-02-26T14:13:22;4.90;;;1.20;;
78406;SDS011;67692;51.074;-1.790;2023-02-26T14:15:59;3.20;;;1.08;;
78406;SDS011;67692;51.074;-1.790;2023-02-26T14:18:29;4.88;;;0.70;;
78406;SDS011;67692;51.074;-1.790;2023-02-26T14:24:05;2.80;;;1.00;;
78406;SDS011;67692;51.074;-1.790;2023-02-26T14:26:44;3.10;;;0.60;;
78406;SDS011;67692;51.074;-1.790;2023-02-26T14:29:14;2.72;;;0.90;;
78406;SDS011;67692;51.074;-1.790;2023-02-26T14:31:49;4.53;;;0.93;;
78406;SDS011;67692;51.074;-1.790;2023-02-26T14:34:20;6.35;;;0.88;;
78406;SDS011;67692;51.074;-1.790;2023-02-26T14:36:50;2.50;;;0.63;;
78406;SDS011;67692;51.074;-1.790;2023-02-26T14:39:29;7.93;;;1.02;;
78406;SDS011;67692;51.074;-1.790;2023-02-26T14:42:00;1.90;;;0.60;;
78406;SDS011;67692;51.074;-1.790;2023-02-26T14:44:30;3.25;;;0.80;;
78406;SDS011;67692;51.074;-1.790;2023-02-26T14:47:03;3.60;;;0.80;;
78406;SDS011;67692;51.074;-1.790;2023-02-26T14:49:31;2.67;;;0.50;;
78406;SDS011;67692;51.074;-1.790;2023-02-26T14:55:12;3.47;;;0.60;;
78406;SDS011;67692;51.074;-1.790;2023-02-26T14:57:50;1.33;;;0.38;;
78406;SDS011;67692;51.074;-1.790;2023-02-26T15:00:29;4.65;;;0.60;;
78406;SDS011;67692;51.074;-1.790;2023-02-26T15:03:14;2.80;;;0.60;;
78406;SDS011;67692;51.074;-1.790;2023-02-26T15:05:57;1.55;;;0.47;;
78406;SDS011;67692;51.074;-1.790;2023-02-26T15:08:44;1.55;;;0.70;;
78406;SDS011;67692;51.074;-1.790;2023-02-26T15:11:28;4.55;;;0.73;;
78406;SDS011;67692;51.074;-1.790;2023-02-26T15:14:18;0.90;;;0.40;;
78406;SDS011;67692;51.074;-1.790;2023-02-26T15:17:00;2.63;;;0.73;;
78406;SDS011;67692;51.074;-1.790;2023-02-26T15:19:42;3.95;;;0.73;;
78406;SDS011;67692;51.074;-1.790;2023-02-26T15:22:24;6.53;;;0.85;;
78406;SDS011;67692;51.074;-1.790;2023-02-26T15:25:00;2.90;;;0.60;;
78406;SDS011;67692;51.074;-1.790;2023-02-26T15:27:28;2.85;;;0.45;;